createdAt,value
2023-02-06T00:00:38.298Z,18.20
2023-02-06T00:03:05.450Z,14.73
2023-02-06T00:05:32.202Z,20.03
2023-02-06T00:07:58.615Z,29.10
2023-02-06T00:10:24.967Z,24.63
2023-02-06T00:12:51.321Z,14.80
2023-02-06T00:15:18.077Z,23.67
2023-02-06T00:17:44.455Z,25.00
2023-02-06T00:20:11.727Z,28.07
2023-02-06T00:22:38.397Z,17.73
2023-02-06T00:25:05.324Z,32.97
2023-02-06T00:27:31.838Z,28.53
2023-02-06T00:29:58.574Z,22.57
2023-02-06T00:32:25.000Z,19.40
2023-02-06T00:34:51.328Z,25.07
2023-02-06T00:37:17.909Z,31.90
2023-02-06T00:39:44.271Z,19.00
2023-02-06T00:42:10.800Z,7.00
2023-02-06T00:44:37.930Z,26.97
2023-02-06T00:47:04.266Z,19.53
2023-02-06T00:49:30.598Z,14.07
2023-02-06T00:51:56.902Z,10.97
2023-02-06T00:54:23.217Z,15.10
2023-02-06T00:56:49.555Z,25.20
2023-02-06T00:59:16.032Z,16.70
2023-02-06T01:01:42.445Z,22.53
2023-02-06T01:04:08.857Z,22.03
2023-02-06T01:06:37.558Z,20.53
2023-02-06T01:09:04.344Z,13.80
2023-02-06T01:11:30.714Z,9.83
2023-02-06T01:13:57.617Z,13.53
2023-02-06T01:16:24.771Z,15.40
2023-02-06T01:18:52.982Z,14.00
2023-02-06T01:21:23.243Z,13.03
2023-02-06T01:23:52.458Z,19.87
2023-02-06T01:26:21.316Z,18.27
2023-02-06T01:28:48.998Z,24.30
2023-02-06T01:31:23.870Z,25.67
2023-02-06T01:33:51.540Z,13.03
2023-02-06T01:36:19.396Z,17.20
2023-02-06T01:38:46.539Z,19.77
2023-02-06T01:41:13.658Z,13.27
2023-02-06T01:43:45.815Z,19.43
2023-02-06T01:46:12.592Z,17.60
2023-02-06T01:48:49.622Z,15.97
2023-02-06T01:51:23.621Z,30.30
2023-02-06T01:53:55.817Z,21.20
2023-02-06T01:56:22.346Z,16.90
2023-02-06T01:58:53.409Z,16.93
2023-02-06T02:01:20.955Z,16.77
2023-02-06T02:03:50.291Z,17.03
2023-02-06T02:06:20.662Z,13.77
2023-02-06T02:08:49.822Z,10.57
2023-02-06T02:11:26.850Z,20.67
2023-02-06T02:13:54.493Z,18.70
2023-02-06T02:16:49.728Z,15.13
2023-02-06T02:19:53.707Z,25.53
2023-02-06T02:22:32.668Z,12.07
2023-02-06T02:25:17.925Z,10.20
2023-02-06T02:28:02.931Z,19.10
2023-02-06T02:30:59.666Z,21.43
2023-02-06T02:33:30.423Z,18.43
2023-02-06T02:36:08.399Z,18.37
2023-02-06T02:38:39.761Z,21.03
2023-02-06T02:41:21.946Z,31.80
2023-02-06T02:44:01.237Z,18.17
2023-02-06T02:46:44.744Z,23.93
2023-02-06T02:49:15.235Z,15.20
2023-02-06T02:51:42.687Z,17.87
2023-02-06T02:54:09.628Z,17.50
2023-02-06T02:56:37.508Z,18.70
2023-02-06T02:59:13.166Z,6.07
2023-02-06T03:01:48.321Z,16.30
2023-02-06T03:04:20.927Z,17.83
2023-02-06T03:06:59.539Z,12.13
2023-02-06T03:09:45.650Z,7.63
2023-02-06T03:12:22.840Z,19.33
2023-02-06T03:14:58.138Z,23.50
2023-02-06T03:17:35.786Z,24.20
2023-02-06T03:20:05.610Z,24.17
2023-02-06T03:22:33.390Z,52.23
2023-02-06T03:25:02.752Z,36.13
2023-02-06T03:27:30.987Z,29.60
2023-02-06T03:29:58.948Z,29.60
2023-02-06T03:32:29.662Z,30.83
2023-02-06T03:35:16.132Z,29.40
2023-02-06T03:37:42.955Z,14.80
2023-02-06T03:40:10.911Z,18.07
2023-02-06T03:42:45.458Z,11.00
2023-02-06T03:45:16.828Z,14.07
2023-02-06T03:47:46.490Z,19.13
2023-02-06T03:50:15.214Z,10.00
2023-02-06T03:52:46.987Z,9.47
2023-02-06T03:55:17.980Z,15.90
2023-02-06T03:57:50.164Z,22.60
2023-02-06T04:00:16.992Z,21.07
2023-02-06T04:02:47.310Z,18.80
2023-02-06T04:05:16.319Z,32.40
2023-02-06T04:07:42.830Z,25.37
2023-02-06T04:10:09.458Z,23.77
2023-02-06T04:12:36.100Z,25.50
2023-02-06T04:15:02.843Z,13.10
2023-02-06T04:17:46.434Z,24.03
2023-02-06T04:20:15.674Z,32.03
2023-02-06T04:22:42.470Z,28.03
2023-02-06T04:25:08.858Z,22.87
2023-02-06T04:27:36.795Z,28.13
2023-02-06T04:30:04.568Z,23.50
2023-02-06T04:32:30.901Z,27.23
2023-02-06T04:34:57.279Z,25.73
2023-02-06T04:37:23.716Z,21.13
2023-02-06T04:39:50.042Z,20.30
2023-02-06T04:42:16.360Z,20.87
2023-02-06T04:44:42.733Z,21.60
2023-02-06T04:47:09.082Z,24.57
2023-02-06T04:49:35.428Z,23.87
2023-02-06T04:52:01.769Z,34.03
2023-02-06T04:54:28.168Z,29.20
2023-02-06T04:56:54.601Z,19.47
2023-02-06T04:59:20.954Z,28.83
2023-02-06T05:01:48.071Z,20.03
2023-02-06T05:04:14.459Z,31.97
2023-02-06T05:06:40.791Z,20.33
2023-02-06T05:09:07.177Z,23.50
2023-02-06T05:11:33.792Z,31.50
2023-02-06T05:14:00.140Z,33.73
2023-02-06T05:16:26.723Z,23.77
2023-02-06T05:18:55.293Z,29.67
2023-02-06T05:21:22.896Z,25.03
2023-02-06T05:23:49.354Z,15.90
2023-02-06T05:26:16.044Z,21.60
2023-02-06T05:28:42.435Z,22.07
2023-02-06T05:31:09.122Z,21.13
2023-02-06T05:33:35.549Z,18.87
2023-02-06T05:36:07.180Z,19.63
2023-02-06T05:38:33.931Z,34.93
2023-02-06T05:41:00.682Z,22.93
2023-02-06T05:43:27.062Z,24.13
2023-02-06T05:45:53.528Z,31.13
2023-02-06T05:48:19.950Z,22.40
2023-02-06T05:50:49.429Z,14.77
2023-02-06T05:53:17.168Z,25.07
2023-02-06T05:55:43.538Z,27.30
2023-02-06T05:58:11.378Z,25.87
2023-02-06T06:00:37.865Z,30.57
2023-02-06T06:03:04.309Z,34.03
2023-02-06T06:05:30.631Z,33.73
2023-02-06T06:07:56.960Z,24.87
2023-02-06T06:10:23.353Z,22.90
2023-02-06T06:12:49.753Z,31.50
2023-02-06T06:15:16.210Z,30.87
2023-02-06T06:17:42.534Z,26.73
2023-02-06T06:20:09.323Z,25.03
2023-02-06T06:22:35.688Z,23.70
2023-02-06T06:25:02.111Z,30.10
2023-02-06T06:27:28.439Z,26.30
2023-02-06T06:29:54.799Z,20.00
2023-02-06T06:32:21.792Z,28.93
2023-02-06T06:34:48.114Z,21.20
2023-02-06T06:37:14.502Z,27.03
2023-02-06T06:39:40.953Z,36.63
2023-02-06T06:42:08.068Z,28.47
2023-02-06T06:44:34.396Z,18.63
2023-02-06T06:47:00.809Z,21.33
2023-02-06T06:49:28.980Z,23.67
2023-02-06T06:51:55.419Z,39.40
2023-02-06T06:54:22.706Z,18.03
2023-02-06T06:56:49.048Z,21.47
2023-02-06T06:59:15.408Z,27.27
2023-02-06T07:01:41.763Z,18.73
2023-02-06T07:04:08.229Z,29.27
2023-02-06T07:06:34.606Z,23.50
2023-02-06T07:09:00.951Z,19.20
2023-02-06T07:11:27.578Z,19.40
2023-02-06T07:13:53.879Z,21.83
2023-02-06T07:16:20.284Z,21.87
2023-02-06T07:18:47.283Z,20.07
2023-02-06T07:21:15.776Z,18.80
2023-02-06T07:23:42.338Z,28.13
2023-02-06T07:26:08.773Z,39.33
2023-02-06T07:28:35.140Z,32.87
2023-02-06T07:31:02.563Z,28.83
2023-02-06T07:33:28.979Z,38.67
2023-02-06T07:35:55.403Z,39.50
2023-02-06T07:38:21.986Z,38.47
2023-02-06T07:40:48.316Z,33.53
2023-02-06T07:43:14.735Z,35.43
2023-02-06T07:45:41.463Z,37.60
2023-02-06T07:48:08.117Z,34.00
2023-02-06T07:50:35.115Z,28.97
2023-02-06T07:53:02.355Z,59.53
2023-02-06T07:55:29.576Z,33.53
2023-02-06T07:57:56.246Z,35.37
2023-02-06T08:00:22.683Z,26.23
2023-02-06T08:02:49.017Z,29.93
2023-02-06T08:05:15.355Z,29.20
2023-02-06T08:07:41.717Z,26.17
2023-02-06T08:10:08.583Z,30.03
2023-02-06T08:12:34.905Z,26.70
2023-02-06T08:15:01.310Z,32.50
2023-02-06T08:17:28.041Z,35.13
2023-02-06T08:19:54.424Z,24.70
2023-02-06T08:22:20.879Z,33.63
2023-02-06T08:24:47.578Z,34.70
2023-02-06T08:27:13.928Z,33.47
2023-02-06T08:29:42.446Z,50.83
2023-02-06T08:32:09.888Z,47.93
2023-02-06T08:34:38.001Z,36.23
2023-02-06T08:37:04.438Z,41.10
2023-02-06T08:39:30.834Z,45.53
2023-02-06T08:41:57.179Z,58.90
2023-02-06T08:44:23.570Z,50.87
2023-02-06T08:46:56.186Z,51.73
2023-02-06T08:49:26.919Z,56.23
2023-02-06T08:51:54.735Z,55.40
2023-02-06T08:54:23.275Z,57.27
2023-02-06T08:56:51.412Z,80.40
2023-02-06T08:59:19.427Z,50.70
2023-02-06T09:01:46.559Z,61.13
2023-02-06T09:04:14.015Z,61.03
2023-02-06T09:06:42.972Z,60.67
2023-02-06T09:09:11.103Z,85.40
2023-02-06T09:11:38.663Z,81.30
2023-02-06T09:14:07.295Z,71.53
2023-02-06T09:16:34.757Z,68.90
2023-02-06T09:19:02.227Z,65.97
2023-02-06T09:21:30.917Z,53.47
2023-02-06T09:24:01.557Z,64.27
2023-02-06T09:26:30.769Z,60.50
2023-02-06T09:29:02.912Z,82.23
2023-02-06T09:31:30.641Z,80.23
2023-02-06T09:33:57.888Z,84.83
2023-02-06T09:36:24.306Z,76.73
2023-02-06T09:38:57.121Z,91.77
2023-02-06T09:41:26.499Z,87.17
2023-02-06T09:43:57.792Z,78.37
2023-02-06T09:46:28.963Z,90.73
2023-02-06T09:48:58.523Z,90.43
2023-02-06T09:51:48.101Z,79.10
2023-02-06T09:54:39.112Z,66.07
2023-02-06T09:57:12.906Z,91.83
2023-02-06T09:59:44.914Z,77.00
2023-02-06T10:02:47.616Z,83.47
2023-02-06T10:05:25.004Z,76.30
2023-02-06T10:08:23.857Z,83.63
2023-02-06T10:10:54.828Z,90.70
2023-02-06T10:13:38.589Z,79.67
2023-02-06T10:16:19.508Z,81.93
2023-02-06T10:18:49.962Z,80.07
2023-02-06T10:21:51.914Z,88.10
2023-02-06T10:24:24.371Z,72.93
2023-02-06T10:26:53.482Z,95.83
2023-02-06T10:29:29.167Z,76.57
2023-02-06T10:32:34.220Z,77.27
2023-02-06T10:35:10.386Z,72.90
2023-02-06T10:37:58.943Z,79.87
2023-02-06T10:40:43.041Z,75.87
2023-02-06T10:43:54.245Z,71.10
2023-02-06T10:46:40.052Z,66.77
2023-02-06T10:49:25.566Z,63.43
2023-02-06T10:51:58.293Z,71.20
2023-02-06T10:54:31.585Z,90.57
2023-02-06T10:57:00.536Z,83.07
2023-02-06T10:59:34.264Z,82.80
2023-02-06T11:02:17.365Z,89.90
2023-02-06T11:05:03.393Z,85.47
2023-02-06T11:07:36.490Z,90.60
2023-02-06T11:10:06.994Z,80.93
2023-02-06T11:12:40.816Z,93.37
2023-02-06T11:15:32.542Z,79.90
2023-02-06T11:18:01.160Z,82.47
2023-02-06T11:20:31.843Z,73.03
2023-02-06T11:23:26.978Z,83.80
2023-02-06T11:25:58.853Z,62.77
2023-02-06T11:28:26.451Z,49.53
2023-02-06T11:31:02.458Z,61.37
2023-02-06T11:33:47.318Z,54.47
2023-02-06T11:36:25.568Z,53.07
2023-02-06T11:38:56.086Z,42.90
2023-02-06T11:41:22.552Z,35.77
2023-02-06T11:43:50.742Z,30.93
2023-02-06T11:46:27.855Z,56.57
2023-02-06T11:48:54.180Z,41.30
2023-02-06T11:51:21.571Z,41.50
2023-02-06T11:54:02.552Z,44.70
2023-02-06T11:56:30.627Z,58.83
2023-02-06T11:59:19.324Z,44.40
2023-02-06T12:01:47.497Z,63.73
2023-02-06T12:04:42.571Z,67.90
2023-02-06T12:07:36.819Z,58.77
2023-02-06T12:10:13.389Z,79.37
2023-02-06T12:12:45.605Z,71.40
2023-02-06T12:15:44.815Z,72.17
2023-02-06T12:18:20.552Z,53.90
2023-02-06T12:20:50.992Z,66.50
2023-02-06T12:23:28.499Z,53.53
2023-02-06T12:25:59.518Z,48.23
2023-02-06T12:28:36.883Z,48.97
2023-02-06T12:31:10.996Z,72.27
2023-02-06T12:33:44.104Z,57.10
2023-02-06T12:36:20.750Z,54.23
2023-02-06T12:39:16.641Z,49.20
2023-02-06T12:42:09.386Z,43.10
2023-02-06T12:44:47.808Z,51.13
2023-02-06T12:47:29.223Z,47.10
2023-02-06T12:50:16.121Z,52.03
2023-02-06T12:52:51.516Z,73.97
2023-02-06T12:55:22.553Z,67.80
2023-02-06T12:57:49.601Z,66.60
2023-02-06T13:00:34.331Z,76.17
2023-02-06T13:03:06.701Z,54.47
2023-02-06T13:05:42.995Z,55.80
2023-02-06T13:08:14.580Z,82.07
2023-02-06T13:10:42.418Z,68.30
2023-02-06T13:13:27.154Z,61.10
2023-02-06T13:15:55.247Z,85.17
2023-02-06T13:18:50.669Z,64.43
2023-02-06T13:21:19.569Z,59.83
2023-02-06T13:24:19.080Z,58.80
2023-02-06T13:26:51.297Z,73.93
2023-02-06T13:29:25.747Z,76.90
2023-02-06T13:32:10.811Z,63.47
2023-02-06T13:34:43.117Z,74.77
2023-02-06T13:37:19.844Z,71.93
2023-02-06T13:39:47.705Z,62.07
2023-02-06T13:42:46.364Z,57.67
2023-02-06T13:45:35.912Z,61.10
2023-02-06T13:48:05.556Z,44.33
2023-02-06T13:50:57.286Z,49.87
2023-02-06T13:53:26.470Z,43.73
2023-02-06T13:56:22.031Z,40.73
2023-02-06T13:58:51.561Z,46.93
2023-02-06T14:01:25.943Z,46.53
2023-02-06T14:03:54.067Z,29.60
2023-02-06T14:06:32.034Z,31.37
2023-02-06T14:09:10.500Z,37.70
2023-02-06T14:12:14.954Z,39.07
2023-02-06T14:14:51.182Z,42.20
2023-02-06T14:17:46.321Z,33.60
2023-02-06T14:20:42.337Z,30.77
2023-02-06T14:23:14.567Z,32.20
2023-02-06T14:25:59.159Z,47.63
2023-02-06T14:28:50.821Z,39.30
2023-02-06T14:31:37.465Z,29.70
2023-02-06T14:34:18.113Z,33.67
2023-02-06T14:37:02.765Z,37.57
2023-02-06T14:39:42.469Z,29.07
2023-02-06T14:42:18.426Z,38.87
2023-02-06T14:44:50.414Z,33.13
2023-02-06T14:47:22.366Z,34.93
2023-02-06T14:49:49.356Z,50.50
2023-02-06T14:52:21.416Z,34.77
2023-02-06T14:54:47.844Z,48.57
2023-02-06T14:57:19.793Z,27.10
2023-02-06T15:00:13.605Z,39.10
2023-02-06T15:02:40.122Z,29.50
2023-02-06T15:05:06.579Z,36.73
2023-02-06T15:07:38.710Z,32.87
2023-02-06T15:10:15.951Z,39.57
2023-02-06T15:12:51.244Z,34.53
2023-02-06T15:15:24.039Z,39.13
2023-02-06T15:18:01.412Z,31.37
2023-02-06T15:20:40.125Z,46.00
2023-02-06T15:23:18.055Z,33.83
2023-02-06T15:25:59.340Z,30.90
2023-02-06T15:28:29.033Z,34.90
2023-02-06T15:30:59.080Z,33.77
2023-02-06T15:33:28.518Z,29.53
2023-02-06T15:35:57.673Z,27.80
2023-02-06T15:38:26.355Z,24.47
2023-02-06T15:40:57.812Z,32.47
2023-02-06T15:43:25.709Z,29.57
2023-02-06T15:45:55.940Z,28.10
2023-02-06T15:48:36.798Z,30.40
2023-02-06T15:51:18.409Z,24.20
2023-02-06T15:53:48.229Z,22.40
2023-02-06T15:56:29.020Z,27.13
2023-02-06T15:58:58.674Z,22.87
2023-02-06T16:01:26.472Z,28.93
2023-02-06T16:03:59.277Z,20.57
2023-02-06T16:06:25.722Z,24.47
2023-02-06T16:08:56.182Z,25.13
2023-02-06T16:11:50.744Z,22.40
2023-02-06T16:14:21.547Z,21.43
2023-02-06T16:17:01.393Z,11.70
2023-02-06T16:19:46.794Z,18.67
2023-02-06T16:22:21.782Z,17.70
2023-02-06T16:24:49.737Z,16.13
2023-02-06T16:27:21.692Z,22.10
2023-02-06T16:29:52.464Z,14.13
2023-02-06T16:32:29.762Z,13.97
2023-02-06T16:34:56.348Z,17.27
2023-02-06T16:37:27.000Z,18.53
2023-02-06T16:39:54.167Z,19.03
2023-02-06T16:42:23.568Z,21.47
2023-02-06T16:44:58.038Z,13.90
2023-02-06T16:47:24.684Z,14.20
2023-02-06T16:49:51.962Z,14.30
2023-02-06T16:52:23.732Z,11.87
2023-02-06T16:54:50.435Z,22.40
2023-02-06T16:57:38.976Z,17.53
2023-02-06T17:00:09.415Z,19.87
2023-02-06T17:02:35.818Z,21.83
2023-02-06T17:05:06.808Z,21.30
2023-02-06T17:07:34.889Z,26.33
2023-02-06T17:10:01.845Z,18.10
2023-02-06T17:12:28.691Z,14.27
2023-02-06T17:14:55.152Z,18.17
2023-02-06T17:17:23.003Z,21.20
2023-02-06T17:19:51.764Z,23.10
2023-02-06T17:22:18.397Z,20.70
2023-02-06T17:24:44.772Z,18.53
2023-02-06T17:27:15.329Z,20.20
2023-02-06T17:29:41.761Z,19.73
2023-02-06T17:32:09.141Z,24.83
2023-02-06T17:34:37.261Z,19.97
2023-02-06T17:37:04.961Z,31.60
2023-02-06T17:39:31.320Z,23.10
2023-02-06T17:41:57.751Z,21.70
2023-02-06T17:44:24.291Z,16.47
2023-02-06T17:46:50.644Z,18.50
2023-02-06T17:49:17.356Z,34.57
2023-02-06T17:51:44.828Z,19.70
2023-02-06T17:54:12.319Z,24.43
2023-02-06T17:56:39.049Z,27.53
2023-02-06T17:59:05.505Z,14.73
2023-02-06T18:01:31.934Z,24.37
2023-02-06T18:04:00.670Z,28.23
2023-02-06T18:06:31.085Z,32.10
2023-02-06T18:08:57.432Z,24.00
2023-02-06T18:11:23.793Z,23.03
2023-02-06T18:13:50.651Z,41.97
2023-02-06T18:16:23.050Z,23.40
2023-02-06T18:18:50.128Z,28.83
2023-02-06T18:21:19.415Z,27.17
2023-02-06T18:23:47.030Z,29.83
2023-02-06T18:26:14.176Z,30.40
2023-02-06T18:28:40.858Z,17.53
2023-02-06T18:31:21.590Z,22.63
2023-02-06T18:33:48.048Z,29.77
2023-02-06T18:36:14.521Z,24.40
2023-02-06T18:38:41.399Z,19.87
2023-02-06T18:41:27.791Z,19.20
2023-02-06T18:43:54.190Z,22.63
2023-02-06T18:46:20.795Z,29.67
2023-02-06T18:48:47.369Z,28.93
2023-02-06T18:51:13.736Z,41.63
2023-02-06T18:53:40.095Z,25.20
2023-02-06T18:56:06.714Z,24.97
2023-02-06T18:58:33.397Z,31.57
2023-02-06T19:00:59.793Z,26.77
2023-02-06T19:03:26.163Z,31.70
2023-02-06T19:05:52.532Z,29.80
2023-02-06T19:08:19.572Z,34.57
2023-02-06T19:10:45.946Z,23.97
2023-02-06T19:13:12.341Z,33.47
2023-02-06T19:15:38.799Z,29.43
2023-02-06T19:18:05.987Z,32.20
2023-02-06T19:20:32.311Z,39.00
2023-02-06T19:22:58.672Z,28.33
2023-02-06T19:25:25.076Z,26.97
2023-02-06T19:27:51.480Z,35.37
2023-02-06T19:30:18.001Z,32.03
2023-02-06T19:32:44.436Z,37.37
2023-02-06T19:35:11.892Z,45.50
2023-02-06T19:37:38.243Z,34.57
2023-02-06T19:40:04.868Z,27.20
2023-02-06T19:42:31.246Z,21.73
2023-02-06T19:44:57.606Z,31.90
2023-02-06T19:47:24.056Z,34.27
2023-02-06T19:49:52.283Z,27.67
2023-02-06T19:52:19.173Z,37.43
2023-02-06T19:54:47.597Z,36.10
2023-02-06T19:57:14.796Z,35.63
2023-02-06T19:59:42.043Z,36.13
2023-02-06T20:02:14.279Z,38.33
2023-02-06T20:04:41.358Z,26.27
2023-02-06T20:07:07.726Z,27.47
2023-02-06T20:09:34.725Z,31.90
2023-02-06T20:12:01.075Z,29.53
2023-02-06T20:14:28.030Z,29.67
2023-02-06T20:16:54.940Z,32.13
2023-02-06T20:19:24.676Z,36.53
2023-02-06T20:21:54.116Z,37.73
2023-02-06T20:24:24.564Z,37.23
2023-02-06T20:26:55.940Z,39.83
2023-02-06T20:29:28.837Z,33.87
2023-02-06T20:31:56.241Z,37.27
2023-02-06T20:34:24.313Z,45.43
2023-02-06T20:36:51.482Z,46.47
2023-02-06T20:39:21.381Z,38.67
2023-02-06T20:41:49.509Z,35.23
2023-02-06T20:44:16.567Z,40.17
2023-02-06T20:46:43.548Z,35.80
2023-02-06T20:49:16.228Z,49.37
2023-02-06T20:51:42.949Z,41.07
2023-02-06T20:54:11.654Z,34.40
2023-02-06T20:56:39.609Z,33.20
2023-02-06T20:59:06.798Z,35.93
2023-02-06T21:01:33.659Z,49.93
2023-02-06T21:04:05.785Z,41.03
2023-02-06T21:06:34.316Z,41.43
2023-02-06T21:09:01.516Z,47.17
2023-02-06T21:11:30.446Z,46.77
2023-02-06T21:14:02.516Z,45.90
2023-02-06T21:16:30.455Z,42.17
2023-02-06T21:18:58.538Z,56.27
2023-02-06T21:21:32.735Z,42.60
2023-02-06T21:23:59.384Z,37.17
2023-02-06T21:26:26.928Z,38.90
2023-02-06T21:28:53.586Z,44.03
2023-02-06T21:31:23.566Z,50.10
2023-02-06T21:33:51.692Z,45.00
2023-02-06T21:36:18.791Z,49.87
2023-02-06T21:38:45.137Z,45.93
2023-02-06T21:41:14.893Z,47.27
2023-02-06T21:43:41.934Z,48.97
2023-02-06T21:46:10.018Z,42.67
2023-02-06T21:48:36.853Z,43.07
2023-02-06T21:51:22.936Z,43.10
2023-02-06T21:53:49.447Z,43.53
2023-02-06T21:56:19.740Z,48.03
2023-02-06T21:58:47.295Z,44.80
2023-02-06T22:01:22.314Z,51.13
2023-02-06T22:03:49.641Z,42.83
2023-02-06T22:06:16.609Z,40.00
2023-02-06T22:08:45.210Z,41.30
2023-02-06T22:11:28.304Z,53.17
2023-02-06T22:14:03.662Z,45.50
2023-02-06T22:16:30.726Z,45.00
2023-02-06T22:18:57.441Z,44.07
2023-02-06T22:21:26.371Z,37.03
2023-02-06T22:23:56.441Z,54.67
2023-02-06T22:26:22.943Z,35.17
2023-02-06T22:28:49.342Z,36.90
2023-02-06T22:31:17.451Z,49.05
2023-02-06T22:33:44.553Z,37.73
2023-02-06T22:36:13.957Z,47.20
2023-02-06T22:38:41.610Z,37.40
2023-02-06T22:41:11.007Z,46.40
2023-02-06T22:43:38.939Z,45.03
2023-02-06T22:46:06.645Z,36.37
2023-02-06T22:48:33.566Z,39.70
2023-02-06T22:51:07.579Z,51.47
2023-02-06T22:53:34.495Z,45.77
2023-02-06T22:56:22.332Z,35.03
2023-02-06T22:58:49.563Z,42.67
2023-02-06T23:01:17.768Z,46.50
2023-02-06T23:03:44.222Z,45.03
2023-02-06T23:06:13.364Z,53.80
2023-02-06T23:08:40.914Z,52.93
2023-02-06T23:11:08.626Z,46.63
2023-02-06T23:13:35.679Z,59.40
2023-02-06T23:16:02.644Z,49.53
2023-02-06T23:18:29.531Z,41.33
2023-02-06T23:21:05.026Z,49.77
2023-02-06T23:23:31.430Z,56.73
2023-02-06T23:25:57.891Z,53.97
2023-02-06T23:28:25.304Z,41.97
2023-02-06T23:30:52.697Z,51.17
2023-02-06T23:33:19.910Z,46.43
2023-02-06T23:35:46.556Z,58.07
2023-02-06T23:38:13.168Z,56.03
2023-02-06T23:40:39.805Z,56.30
2023-02-06T23:43:06.540Z,52.60
2023-02-06T23:45:33.817Z,46.50
2023-02-06T23:48:00.207Z,41.43
2023-02-06T23:50:27.049Z,48.73
2023-02-06T23:52:53.572Z,48.53
2023-02-06T23:55:21.291Z,46.30
2023-02-06T23:57:47.666Z,51.63
